ANA408 RJSK-RJTT
Flight info
| Callsign | ANA408 |
|---|---|
| Flight time | 1h 2m |
| Altitude | 36000 |
| Route | YTE Y32 RUBIS Y10 GODIN |
| Aircraft | A321/M-SDE3FGHIRWY/LB1 |
Departure
| Time | 2026-04-15 14:39 |
|---|---|
| Airport | Akita Airport (RJSK) |
Arrival
| Time | 2026-04-15 15:42 |
|---|---|
| Airport | Tokyo Haneda International Airport (RJTT) |
| Time | Latitude | Longitude | Altitude | Speed | Heading |
|---|---|---|---|---|---|
| 2026-04-15 14:21 | 39.61238 | 140.22002 | 313 ft | 0 kts | 183° |
| 2026-04-15 14:32 | 39.61256 | 140.22001 | 311 ft | 4 kts | 140° |
| 2026-04-15 14:32 | 39.61267 | 140.21975 | 310 ft | 4 kts | 99° |
| 2026-04-15 14:33 | 39.61268 | 140.21963 | 310 ft | 0 kts | 97° |
| 2026-04-15 14:35 | 39.61269 | 140.21975 | 310 ft | 6 kts | 88° |
| 2026-04-15 14:35 | 39.61315 | 140.22060 | 313 ft | 16 kts | 51° |
| 2026-04-15 14:35 | 39.61366 | 140.22171 | 313 ft | 13 kts | 82° |
| 2026-04-15 14:36 | 39.61360 | 140.22277 | 314 ft | 10 kts | 96° |
| 2026-04-15 14:36 | 39.61349 | 140.22406 | 316 ft | 20 kts | 96° |
| 2026-04-15 14:36 | 39.61334 | 140.22579 | 317 ft | 18 kts | 96° |
| 2026-04-15 14:36 | 39.61320 | 140.22727 | 318 ft | 15 kts | 97° |
| 2026-04-15 14:37 | 39.61308 | 140.22855 | 320 ft | 15 kts | 96° |
| 2026-04-15 14:37 | 39.61295 | 140.23011 | 321 ft | 17 kts | 96° |
| 2026-04-15 14:37 | 39.61283 | 140.23153 | 321 ft | 15 kts | 96° |
| 2026-04-15 14:37 | 39.61298 | 140.23264 | 322 ft | 11 kts | 47° |
| 2026-04-15 14:38 | 39.61372 | 140.23293 | 322 ft | 14 kts | 8° |
| 2026-04-15 14:38 | 39.61443 | 140.23260 | 322 ft | 6 kts | 292° |
| 2026-04-15 14:38 | 39.61444 | 140.23234 | 322 ft | 0 kts | 277° |
| 2026-04-15 14:38 | 39.61450 | 140.23180 | 322 ft | 31 kts | 277° |
| 2026-04-15 14:39 | 39.61504 | 140.22566 | 319 ft | 102 kts | 276° |
| 2026-04-15 14:39 | 39.61611 | 140.21406 | 310 ft | 154 kts | 277° |
| 2026-04-15 14:39 | 39.61749 | 140.19957 | 793 ft | 160 kts | 277° |
| 2026-04-15 14:39 | 39.61746 | 140.18532 | 1453 ft | 159 kts | 247° |
| 2026-04-15 14:40 | 39.61022 | 140.17495 | 2024 ft | 159 kts | 206° |
| 2026-04-15 14:40 | 39.59905 | 140.17258 | 2339 ft | 175 kts | 174° |
| 2026-04-15 14:40 | 39.58621 | 140.17476 | 2511 ft | 196 kts | 173° |
| 2026-04-15 14:40 | 39.57196 | 140.17712 | 2628 ft | 218 kts | 173° |
| 2026-04-15 14:41 | 39.55608 | 140.17971 | 2851 ft | 242 kts | 173° |
| 2026-04-15 14:41 | 39.53873 | 140.18249 | 3413 ft | 257 kts | 173° |
| 2026-04-15 14:41 | 39.52080 | 140.18531 | 4232 ft | 263 kts | 173° |
| 2026-04-15 14:41 | 39.50241 | 140.18816 | 5027 ft | 269 kts | 173° |
| 2026-04-15 14:42 | 39.48364 | 140.19105 | 5848 ft | 274 kts | 173° |
| 2026-04-15 14:42 | 39.46452 | 140.19397 | 6664 ft | 279 kts | 174° |
| 2026-04-15 14:42 | 39.44515 | 140.19692 | 7488 ft | 281 kts | 174° |
| 2026-04-15 14:42 | 39.42566 | 140.19990 | 8363 ft | 283 kts | 174° |
| 2026-04-15 14:43 | 39.40611 | 140.20289 | 9230 ft | 284 kts | 174° |
| 2026-04-15 14:43 | 39.38644 | 140.20587 | 10058 ft | 285 kts | 174° |
| 2026-04-15 14:43 | 39.36619 | 140.20894 | 10466 ft | 304 kts | 174° |
| 2026-04-15 14:43 | 39.34442 | 140.21234 | 10651 ft | 327 kts | 172° |
| 2026-04-15 14:44 | 39.32195 | 140.21994 | 11101 ft | 340 kts | 161° |
| 2026-04-15 14:44 | 39.29997 | 140.23188 | 11780 ft | 345 kts | 159° |
| 2026-04-15 14:44 | 39.27774 | 140.24404 | 12487 ft | 349 kts | 159° |
| 2026-04-15 14:44 | 39.25515 | 140.25631 | 13188 ft | 354 kts | 160° |
| 2026-04-15 14:45 | 39.23229 | 140.26869 | 13867 ft | 358 kts | 160° |
| 2026-04-15 14:45 | 39.20919 | 140.28117 | 14482 ft | 363 kts | 160° |
| 2026-04-15 14:45 | 39.18574 | 140.29382 | 15102 ft | 367 kts | 161° |
| 2026-04-15 14:45 | 39.16207 | 140.30661 | 15708 ft | 371 kts | 161° |
| 2026-04-15 14:46 | 39.13811 | 140.31960 | 16302 ft | 376 kts | 161° |
| 2026-04-15 14:46 | 39.11385 | 140.33277 | 16911 ft | 380 kts | 162° |
| 2026-04-15 14:46 | 39.08878 | 140.34342 | 17490 ft | 379 kts | 172° |
| 2026-04-15 14:46 | 39.06273 | 140.34815 | 18061 ft | 377 kts | 183° |
| 2026-04-15 14:47 | 39.03647 | 140.34859 | 18577 ft | 379 kts | 185° |
| 2026-04-15 14:47 | 39.01001 | 140.34889 | 19123 ft | 381 kts | 185° |
| 2026-04-15 14:47 | 38.98346 | 140.34927 | 19692 ft | 382 kts | 185° |
| 2026-04-15 14:47 | 38.95683 | 140.34970 | 20245 ft | 383 kts | 185° |
| 2026-04-15 14:48 | 38.93010 | 140.35010 | 20788 ft | 385 kts | 185° |
| 2026-04-15 14:48 | 38.90327 | 140.35050 | 21337 ft | 386 kts | 185° |
| 2026-04-15 14:48 | 38.87667 | 140.35090 | 21864 ft | 388 kts | 185° |
| 2026-04-15 14:48 | 38.84959 | 140.35128 | 22401 ft | 390 kts | 185° |
| 2026-04-15 14:49 | 38.82238 | 140.35163 | 22922 ft | 392 kts | 185° |
| 2026-04-15 14:49 | 38.79499 | 140.35198 | 23419 ft | 395 kts | 185° |
| 2026-04-15 14:49 | 38.76744 | 140.35235 | 23866 ft | 397 kts | 185° |
| 2026-04-15 14:49 | 38.73975 | 140.35275 | 24286 ft | 398 kts | 185° |
| 2026-04-15 14:50 | 38.71197 | 140.35319 | 24714 ft | 400 kts | 185° |
| 2026-04-15 14:50 | 38.68411 | 140.35363 | 25137 ft | 401 kts | 185° |
| 2026-04-15 14:50 | 38.65614 | 140.35403 | 25568 ft | 403 kts | 185° |
| 2026-04-15 14:50 | 38.62809 | 140.35441 | 25981 ft | 404 kts | 185° |
| 2026-04-15 14:51 | 38.59991 | 140.35480 | 26378 ft | 406 kts | 185° |
| 2026-04-15 14:51 | 38.57163 | 140.35523 | 26804 ft | 407 kts | 185° |
| 2026-04-15 14:51 | 38.54325 | 140.35569 | 27205 ft | 409 kts | 185° |
| 2026-04-15 14:51 | 38.51477 | 140.35614 | 27591 ft | 410 kts | 185° |
| 2026-04-15 14:52 | 38.48614 | 140.35656 | 27970 ft | 412 kts | 185° |
| 2026-04-15 14:52 | 38.45737 | 140.35696 | 28340 ft | 414 kts | 185° |
| 2026-04-15 14:52 | 38.42850 | 140.35736 | 28692 ft | 416 kts | 185° |
| 2026-04-15 14:52 | 38.39950 | 140.35884 | 29038 ft | 422 kts | 179° |
| 2026-04-15 14:53 | 38.37040 | 140.36601 | 29340 ft | 431 kts | 170° |
| 2026-04-15 14:53 | 38.34172 | 140.37826 | 29649 ft | 436 kts | 167° |
| 2026-04-15 14:53 | 38.31296 | 140.39094 | 29956 ft | 439 kts | 167° |
| 2026-04-15 14:53 | 38.28398 | 140.40364 | 30227 ft | 441 kts | 167° |
| 2026-04-15 14:54 | 38.25491 | 140.41631 | 30469 ft | 443 kts | 168° |
| 2026-04-15 14:54 | 38.22574 | 140.42896 | 30762 ft | 443 kts | 168° |
| 2026-04-15 14:54 | 38.19656 | 140.44160 | 31176 ft | 442 kts | 168° |
| 2026-04-15 14:54 | 38.16753 | 140.45419 | 31594 ft | 440 kts | 168° |
| 2026-04-15 14:55 | 38.13852 | 140.46678 | 31988 ft | 439 kts | 168° |
| 2026-04-15 14:55 | 38.10961 | 140.47930 | 32377 ft | 438 kts | 168° |
| 2026-04-15 14:55 | 38.08081 | 140.49180 | 32753 ft | 437 kts | 168° |
| 2026-04-15 14:55 | 38.05206 | 140.50429 | 33153 ft | 436 kts | 168° |
| 2026-04-15 14:56 | 38.02339 | 140.51670 | 33579 ft | 434 kts | 168° |
| 2026-04-15 14:56 | 37.99483 | 140.52905 | 33993 ft | 433 kts | 169° |
| 2026-04-15 14:56 | 37.96632 | 140.54136 | 34313 ft | 433 kts | 169° |
| 2026-04-15 14:56 | 37.93777 | 140.55364 | 34578 ft | 434 kts | 169° |
| 2026-04-15 14:57 | 37.90912 | 140.56591 | 34815 ft | 435 kts | 169° |
| 2026-04-15 14:57 | 37.88040 | 140.57825 | 35052 ft | 437 kts | 169° |
| 2026-04-15 14:57 | 37.85155 | 140.59065 | 35271 ft | 438 kts | 169° |
| 2026-04-15 14:57 | 37.82263 | 140.60307 | 35489 ft | 440 kts | 169° |
| 2026-04-15 14:58 | 37.79395 | 140.61531 | 35714 ft | 440 kts | 171° |
| 2026-04-15 14:58 | 37.76405 | 140.62404 | 35892 ft | 432 kts | 180° |
| 2026-04-15 14:58 | 37.73489 | 140.62655 | 35950 ft | 420 kts | 189° |
| 2026-04-15 14:59 | 37.67849 | 140.61552 | 35949 ft | 406 kts | 200° |
| 2026-04-15 14:59 | 37.62336 | 140.59947 | 35945 ft | 407 kts | 200° |
| 2026-04-15 15:00 | 37.56814 | 140.58374 | 35947 ft | 407 kts | 200° |
| 2026-04-15 15:00 | 37.51290 | 140.56795 | 35941 ft | 406 kts | 200° |
| 2026-04-15 15:01 | 37.45779 | 140.55214 | 35941 ft | 406 kts | 200° |
| 2026-04-15 15:01 | 37.40267 | 140.53633 | 35944 ft | 406 kts | 200° |
| 2026-04-15 15:02 | 37.34761 | 140.52061 | 35657 ft | 405 kts | 200° |
| 2026-04-15 15:02 | 37.32009 | 140.51277 | 35097 ft | 407 kts | 200° |
| 2026-04-15 15:02 | 37.29240 | 140.50485 | 34347 ft | 410 kts | 199° |
| 2026-04-15 15:02 | 37.26445 | 140.49684 | 33465 ft | 414 kts | 199° |
| 2026-04-15 15:03 | 37.23618 | 140.48875 | 32533 ft | 418 kts | 199° |
| 2026-04-15 15:03 | 37.20777 | 140.48065 | 31847 ft | 417 kts | 199° |
| 2026-04-15 15:03 | 37.17965 | 140.47272 | 31324 ft | 413 kts | 198° |
| 2026-04-15 15:03 | 37.15166 | 140.46485 | 30747 ft | 411 kts | 198° |
| 2026-04-15 15:04 | 37.12386 | 140.45703 | 30189 ft | 408 kts | 198° |
| 2026-04-15 15:04 | 37.09625 | 140.44923 | 29574 ft | 405 kts | 198° |
| 2026-04-15 15:04 | 37.06887 | 140.44146 | 29028 ft | 401 kts | 198° |
| 2026-04-15 15:04 | 37.04184 | 140.43378 | 28488 ft | 397 kts | 198° |
| 2026-04-15 15:05 | 37.01499 | 140.42619 | 27952 ft | 393 kts | 198° |
| 2026-04-15 15:05 | 36.98848 | 140.41873 | 27425 ft | 389 kts | 198° |
| 2026-04-15 15:05 | 36.96221 | 140.41132 | 26900 ft | 385 kts | 197° |
| 2026-04-15 15:05 | 36.93618 | 140.40395 | 26389 ft | 382 kts | 197° |
| 2026-04-15 15:06 | 36.89343 | 140.39184 | 25561 ft | 376 kts | 197° |
| 2026-04-15 15:06 | 36.85950 | 140.38222 | 24917 ft | 371 kts | 197° |
| 2026-04-15 15:06 | 36.83442 | 140.37515 | 24454 ft | 368 kts | 197° |
| 2026-04-15 15:07 | 36.80989 | 140.36824 | 24001 ft | 364 kts | 197° |
| 2026-04-15 15:07 | 36.78529 | 140.36135 | 23560 ft | 361 kts | 197° |
| 2026-04-15 15:07 | 36.76083 | 140.35451 | 23075 ft | 358 kts | 197° |
| 2026-04-15 15:07 | 36.74451 | 140.34995 | 22781 ft | 355 kts | 196° |
| 2026-04-15 15:08 | 36.72041 | 140.34404 | 22357 ft | 351 kts | 194° |
| 2026-04-15 15:08 | 36.68873 | 140.33756 | 21817 ft | 346 kts | 193° |
| 2026-04-15 15:08 | 36.67271 | 140.33454 | 21525 ft | 344 kts | 193° |
| 2026-04-15 15:08 | 36.64913 | 140.33019 | 21100 ft | 341 kts | 193° |
| 2026-04-15 15:09 | 36.62576 | 140.32582 | 20675 ft | 338 kts | 193° |
| 2026-04-15 15:09 | 36.60262 | 140.32135 | 20252 ft | 335 kts | 193° |
| 2026-04-15 15:09 | 36.57968 | 140.31681 | 19837 ft | 333 kts | 193° |
| 2026-04-15 15:09 | 36.55687 | 140.31226 | 19408 ft | 331 kts | 193° |
| 2026-04-15 15:10 | 36.53449 | 140.30779 | 18984 ft | 329 kts | 193° |
| 2026-04-15 15:10 | 36.51161 | 140.30322 | 18553 ft | 328 kts | 193° |
| 2026-04-15 15:10 | 36.48938 | 140.29875 | 18119 ft | 327 kts | 193° |
| 2026-04-15 15:10 | 36.46697 | 140.29425 | 17664 ft | 326 kts | 193° |
| 2026-04-15 15:11 | 36.44467 | 140.28976 | 17243 ft | 323 kts | 193° |
| 2026-04-15 15:11 | 36.42256 | 140.28536 | 16826 ft | 321 kts | 193° |
| 2026-04-15 15:11 | 36.40058 | 140.28099 | 16422 ft | 319 kts | 193° |
| 2026-04-15 15:11 | 36.37874 | 140.27664 | 16015 ft | 317 kts | 193° |
| 2026-04-15 15:12 | 36.35698 | 140.27226 | 15616 ft | 316 kts | 193° |
| 2026-04-15 15:12 | 36.33534 | 140.26793 | 15217 ft | 314 kts | 192° |
| 2026-04-15 15:12 | 36.31380 | 140.26363 | 14822 ft | 313 kts | 192° |
| 2026-04-15 15:12 | 36.29234 | 140.25937 | 14415 ft | 311 kts | 192° |
| 2026-04-15 15:13 | 36.27101 | 140.25514 | 14023 ft | 310 kts | 192° |
| 2026-04-15 15:13 | 36.24974 | 140.25092 | 13616 ft | 309 kts | 192° |
| 2026-04-15 15:13 | 36.22860 | 140.24672 | 13253 ft | 306 kts | 192° |
| 2026-04-15 15:13 | 36.20762 | 140.24257 | 12913 ft | 305 kts | 192° |
| 2026-04-15 15:14 | 36.18600 | 140.23824 | 12736 ft | 322 kts | 192° |
| 2026-04-15 15:14 | 36.16371 | 140.23378 | 12506 ft | 326 kts | 191° |
| 2026-04-15 15:14 | 36.14131 | 140.22933 | 12278 ft | 326 kts | 191° |
| 2026-04-15 15:14 | 36.11891 | 140.22488 | 12041 ft | 326 kts | 191° |
| 2026-04-15 15:15 | 36.09657 | 140.22045 | 11810 ft | 325 kts | 191° |
| 2026-04-15 15:15 | 36.07427 | 140.21604 | 11582 ft | 324 kts | 191° |
| 2026-04-15 15:15 | 36.05199 | 140.21163 | 11345 ft | 323 kts | 190° |
| 2026-04-15 15:15 | 36.02978 | 140.20725 | 11120 ft | 323 kts | 190° |
| 2026-04-15 15:16 | 36.00738 | 140.20524 | 10895 ft | 323 kts | 182° |
| 2026-04-15 15:16 | 35.98490 | 140.20489 | 10681 ft | 323 kts | 181° |
| 2026-04-15 15:16 | 35.96245 | 140.20454 | 10473 ft | 322 kts | 181° |
| 2026-04-15 15:16 | 35.94069 | 140.20420 | 10237 ft | 301 kts | 181° |
| 2026-04-15 15:17 | 35.92008 | 140.20385 | 9749 ft | 295 kts | 181° |
| 2026-04-15 15:17 | 35.89983 | 140.20350 | 9602 ft | 290 kts | 181° |
| 2026-04-15 15:17 | 35.87971 | 140.20316 | 9467 ft | 289 kts | 181° |
| 2026-04-15 15:17 | 35.85959 | 140.20284 | 9338 ft | 289 kts | 181° |
| 2026-04-15 15:18 | 35.83952 | 140.20250 | 9207 ft | 288 kts | 181° |
| 2026-04-15 15:18 | 35.81946 | 140.20216 | 9078 ft | 288 kts | 181° |
| 2026-04-15 15:18 | 35.80620 | 140.20193 | 8999 ft | 288 kts | 181° |
| 2026-04-15 15:18 | 35.79141 | 140.20166 | 8894 ft | 288 kts | 181° |
| 2026-04-15 15:19 | 35.77135 | 140.20153 | 8771 ft | 287 kts | 179° |
| 2026-04-15 15:19 | 35.75136 | 140.20219 | 8640 ft | 287 kts | 178° |
| 2026-04-15 15:19 | 35.73170 | 140.20323 | 8510 ft | 287 kts | 177° |
| 2026-04-15 15:19 | 35.71152 | 140.20443 | 8385 ft | 286 kts | 177° |
| 2026-04-15 15:20 | 35.69205 | 140.20553 | 8258 ft | 280 kts | 177° |
| 2026-04-15 15:20 | 35.67298 | 140.20653 | 8128 ft | 268 kts | 178° |
| 2026-04-15 15:20 | 35.65470 | 140.20742 | 8009 ft | 257 kts | 178° |
| 2026-04-15 15:20 | 35.63739 | 140.20824 | 8028 ft | 239 kts | 178° |
| 2026-04-15 15:21 | 35.62123 | 140.20897 | 8013 ft | 228 kts | 178° |
| 2026-04-15 15:21 | 35.60568 | 140.20925 | 8011 ft | 215 kts | 179° |
| 2026-04-15 15:21 | 35.59158 | 140.20932 | 8007 ft | 192 kts | 180° |
| 2026-04-15 15:21 | 35.57924 | 140.20933 | 8011 ft | 167 kts | 180° |
| 2026-04-15 15:22 | 35.56788 | 140.20936 | 8007 ft | 161 kts | 180° |
| 2026-04-15 15:22 | 35.55669 | 140.20941 | 8007 ft | 160 kts | 180° |
| 2026-04-15 15:22 | 35.54547 | 140.20947 | 8015 ft | 166 kts | 180° |
| 2026-04-15 15:22 | 35.53325 | 140.20954 | 8018 ft | 184 kts | 179° |
| 2026-04-15 15:23 | 35.52010 | 140.20965 | 8019 ft | 192 kts | 179° |
| 2026-04-15 15:23 | 35.50674 | 140.21106 | 8011 ft | 194 kts | 167° |
| 2026-04-15 15:23 | 35.49416 | 140.21689 | 8005 ft | 194 kts | 151° |
| 2026-04-15 15:23 | 35.48337 | 140.22676 | 8007 ft | 194 kts | 135° |
| 2026-04-15 15:24 | 35.47473 | 140.23940 | 8010 ft | 193 kts | 128° |
| 2026-04-15 15:24 | 35.46629 | 140.25225 | 8003 ft | 193 kts | 128° |
| 2026-04-15 15:24 | 35.45783 | 140.26511 | 8006 ft | 193 kts | 129° |
| 2026-04-15 15:24 | 35.44940 | 140.27792 | 8007 ft | 193 kts | 129° |
| 2026-04-15 15:25 | 35.44095 | 140.29075 | 8006 ft | 193 kts | 129° |
| 2026-04-15 15:25 | 35.43241 | 140.30344 | 8006 ft | 193 kts | 133° |
| 2026-04-15 15:25 | 35.42218 | 140.31399 | 8003 ft | 193 kts | 147° |
| 2026-04-15 15:25 | 35.41035 | 140.32169 | 8004 ft | 192 kts | 154° |
| 2026-04-15 15:26 | 35.39838 | 140.32898 | 8005 ft | 192 kts | 154° |
| 2026-04-15 15:26 | 35.38641 | 140.33628 | 8003 ft | 192 kts | 154° |
| 2026-04-15 15:26 | 35.37446 | 140.34358 | 8007 ft | 192 kts | 154° |
| 2026-04-15 15:26 | 35.36253 | 140.35088 | 8004 ft | 192 kts | 154° |
| 2026-04-15 15:27 | 35.34992 | 140.35610 | 8002 ft | 191 kts | 168° |
| 2026-04-15 15:27 | 35.33669 | 140.35755 | 8004 ft | 191 kts | 178° |
| 2026-04-15 15:27 | 35.32340 | 140.35807 | 7998 ft | 191 kts | 178° |
| 2026-04-15 15:27 | 35.31012 | 140.35864 | 7998 ft | 191 kts | 178° |
| 2026-04-15 15:28 | 35.29686 | 140.35922 | 7997 ft | 191 kts | 178° |
| 2026-04-15 15:28 | 35.28362 | 140.35920 | 7990 ft | 191 kts | 187° |
| 2026-04-15 15:28 | 35.27118 | 140.35380 | 8005 ft | 191 kts | 210° |
| 2026-04-15 15:28 | 35.26147 | 140.34284 | 7995 ft | 192 kts | 233° |
| 2026-04-15 15:29 | 35.25599 | 140.32805 | 7881 ft | 193 kts | 256° |
| 2026-04-15 15:29 | 35.25584 | 140.31172 | 7777 ft | 194 kts | 280° |
| 2026-04-15 15:29 | 35.25901 | 140.29570 | 7670 ft | 194 kts | 283° |
| 2026-04-15 15:29 | 35.26210 | 140.27966 | 7570 ft | 193 kts | 283° |
| 2026-04-15 15:30 | 35.26514 | 140.26368 | 7469 ft | 193 kts | 283° |
| 2026-04-15 15:30 | 35.26816 | 140.24769 | 7365 ft | 193 kts | 283° |
| 2026-04-15 15:30 | 35.27119 | 140.23169 | 7260 ft | 193 kts | 283° |
| 2026-04-15 15:30 | 35.27422 | 140.21573 | 7153 ft | 192 kts | 283° |
| 2026-04-15 15:31 | 35.27722 | 140.19979 | 7055 ft | 192 kts | 283° |
| 2026-04-15 15:31 | 35.28017 | 140.18408 | 6955 ft | 192 kts | 283° |
| 2026-04-15 15:31 | 35.28316 | 140.16820 | 6853 ft | 192 kts | 283° |
| 2026-04-15 15:31 | 35.28614 | 140.15232 | 6743 ft | 191 kts | 283° |
| 2026-04-15 15:32 | 35.28912 | 140.13648 | 6651 ft | 191 kts | 284° |
| 2026-04-15 15:32 | 35.29194 | 140.12066 | 6545 ft | 190 kts | 279° |
| 2026-04-15 15:32 | 35.29195 | 140.10448 | 6450 ft | 191 kts | 263° |
| 2026-04-15 15:32 | 35.28829 | 140.08888 | 6348 ft | 192 kts | 247° |
| 2026-04-15 15:33 | 35.28177 | 140.07463 | 6242 ft | 192 kts | 240° |
| 2026-04-15 15:33 | 35.27505 | 140.06049 | 6130 ft | 192 kts | 241° |
| 2026-04-15 15:33 | 35.27052 | 140.04522 | 6035 ft | 191 kts | 259° |
| 2026-04-15 15:33 | 35.27013 | 140.02912 | 5938 ft | 189 kts | 278° |
| 2026-04-15 15:34 | 35.27374 | 140.01378 | 5835 ft | 187 kts | 296° |
| 2026-04-15 15:34 | 35.28021 | 140.00000 | 5740 ft | 187 kts | 302° |
| 2026-04-15 15:34 | 35.28755 | 139.98699 | 5647 ft | 185 kts | 313° |
| 2026-04-15 15:34 | 35.29720 | 139.97667 | 5543 ft | 184 kts | 327° |
| 2026-04-15 15:35 | 35.30808 | 139.96852 | 5309 ft | 183 kts | 332° |
| 2026-04-15 15:35 | 35.31915 | 139.96092 | 5063 ft | 182 kts | 333° |
| 2026-04-15 15:35 | 35.33015 | 139.95329 | 4818 ft | 182 kts | 332° |
| 2026-04-15 15:35 | 35.34109 | 139.94561 | 4577 ft | 181 kts | 332° |
| 2026-04-15 15:36 | 35.35200 | 139.93793 | 4335 ft | 180 kts | 332° |
| 2026-04-15 15:36 | 35.36282 | 139.93029 | 4090 ft | 179 kts | 333° |
| 2026-04-15 15:36 | 35.37367 | 139.92264 | 3854 ft | 181 kts | 332° |
| 2026-04-15 15:36 | 35.38447 | 139.91501 | 3612 ft | 178 kts | 332° |
| 2026-04-15 15:37 | 35.39516 | 139.90746 | 3390 ft | 177 kts | 332° |
| 2026-04-15 15:37 | 35.40578 | 139.89996 | 3149 ft | 176 kts | 333° |
| 2026-04-15 15:37 | 35.41634 | 139.89249 | 2912 ft | 171 kts | 332° |
| 2026-04-15 15:37 | 35.42600 | 139.88565 | 2690 ft | 151 kts | 333° |
| 2026-04-15 15:38 | 35.43482 | 139.87941 | 2502 ft | 143 kts | 333° |
| 2026-04-15 15:38 | 35.44327 | 139.87344 | 2313 ft | 139 kts | 334° |
| 2026-04-15 15:38 | 35.45161 | 139.86755 | 2131 ft | 137 kts | 334° |
| 2026-04-15 15:38 | 35.45980 | 139.86175 | 1941 ft | 135 kts | 333° |
| 2026-04-15 15:39 | 35.46791 | 139.85602 | 1768 ft | 134 kts | 333° |
| 2026-04-15 15:39 | 35.47597 | 139.85031 | 1591 ft | 134 kts | 334° |
| 2026-04-15 15:39 | 35.48399 | 139.84463 | 1404 ft | 133 kts | 333° |
| 2026-04-15 15:39 | 35.49201 | 139.83896 | 1228 ft | 133 kts | 332° |
| 2026-04-15 15:40 | 35.49999 | 139.83330 | 1044 ft | 132 kts | 331° |
| 2026-04-15 15:40 | 35.50800 | 139.82763 | 858 ft | 133 kts | 333° |
| 2026-04-15 15:40 | 35.51590 | 139.82202 | 681 ft | 130 kts | 332° |
| 2026-04-15 15:40 | 35.52373 | 139.81647 | 501 ft | 129 kts | 331° |
| 2026-04-15 15:41 | 35.53147 | 139.81099 | 328 ft | 128 kts | 330° |
| 2026-04-15 15:41 | 35.53916 | 139.80553 | 156 ft | 128 kts | 329° |
| 2026-04-15 15:41 | 35.54674 | 139.80003 | 33 ft | 121 kts | 330° |
| 2026-04-15 15:41 | 35.55261 | 139.79594 | 25 ft | 58 kts | 332° |
| 2026-04-15 15:42 | 35.55415 | 139.79487 | 26 ft | 10 kts | 314° |
| 2026-04-15 15:42 | 35.55442 | 139.79432 | 24 ft | 5 kts | 301° |
| 2026-04-15 15:42 | 35.55455 | 139.79406 | 24 ft | 3 kts | 301° |
| 2026-04-15 15:42 | 35.55479 | 139.79355 | 23 ft | 12 kts | 298° |
| 2026-04-15 15:43 | 35.55511 | 139.79224 | 23 ft | 17 kts | 266° |
| 2026-04-15 15:43 | 35.55478 | 139.79098 | 23 ft | 14 kts | 239° |
| 2026-04-15 15:43 | 35.55439 | 139.79010 | 24 ft | 9 kts | 257° |
| 2026-04-15 15:43 | 35.55462 | 139.78960 | 23 ft | 5 kts | 327° |
| 2026-04-15 15:44 | 35.55479 | 139.78948 | 23 ft | 1 kts | 329° |
| 2026-04-15 15:44 | 35.55491 | 139.78939 | 23 ft | 1 kts | 330° |
| 2026-04-15 15:44 | 35.55501 | 139.78932 | 24 ft | 0 kts | 330° |